Time;durP1;ratioP1;P1;durP2;ratioP2;P2;SDS_P1;SDS_P2;PMS_P1;PMS_P2;Temp;Humidity;BMP_temperature;BMP_pressure;BME280_temperature;BME280_humidity;BME280_pressure;Samples;Min_cycle;Max_cycle;Signal;HPM_P1;HPM_P2
2022/05/29 00:01:38;;;;;;;1.40;1.10;;;17.10;41.30;;;;;;5014329;28;20455;-78
2022/05/29 00:04:07;;;;;;;5.17;1.30;;;17.10;42.00;;;;;;5019823;28;20888;-79
2022/05/29 00:06:40;;;;;;;1.30;1.20;;;17.20;42.30;;;;;;5022755;28;20465;-79
2022/05/29 00:09:12;;;;;;;1.47;1.20;;;17.20;41.40;;;;;;5014828;28;21385;-79
2022/05/29 00:11:40;;;;;;;2.40;1.20;;;17.10;42.20;;;;;;5021478;28;20473;-78
2022/05/29 00:14:09;;;;;;;3.30;1.47;;;17.10;43.90;;;;;;5020576;28;20807;-78
2022/05/29 00:16:38;;;;;;;1.57;1.30;;;17.10;43.70;;;;;;5019052;28;21302;-79
2022/05/29 00:19:06;;;;;;;3.23;1.30;;;17.10;45.00;;;;;;5020045;28;20850;-78
2022/05/29 00:21:37;;;;;;;2.83;1.30;;;17.10;45.60;;;;;;5014704;28;20476;-78
2022/05/29 00:24:08;;;;;;;1.70;1.20;;;17.10;44.50;;;;;;5024153;28;20466;-78
2022/05/29 00:26:37;;;;;;;2.33;1.53;;;17.10;45.00;;;;;;5013190;28;20460;-78
2022/05/29 00:29:05;;;;;;;3.27;1.40;;;17.10;47.20;;;;;;5017846;28;20492;-79
2022/05/29 00:31:35;;;;;;;1.30;1.20;;;17.10;49.40;;;;;;5017199;28;21296;-79
2022/05/29 00:34:03;;;;;;;1.50;1.40;;;17.10;49.70;;;;;;5020080;28;21730;-78
2022/05/29 00:36:35;;;;;;;1.40;1.10;;;17.10;53.10;;;;;;5028813;28;20475;-79
2022/05/29 00:39:03;;;;;;;1.43;1.33;;;17.00;53.10;;;;;;5022789;28;20529;-78
2022/05/29 00:41:33;;;;;;;2.30;1.63;;;17.00;56.50;;;;;;5019974;28;20461;-78
2022/05/29 00:44:14;;;;;;;1.47;1.37;;;16.90;60.10;;;;;;5024196;28;20444;-78
2022/05/29 00:46:48;;;;;;;1.20;1.10;;;17.00;62.90;;;;;;5016319;28;21050;-79
2022/05/29 00:49:18;;;;;;;1.30;1.10;;;17.00;64.40;;;;;;5014193;28;20472;-79
2022/05/29 00:51:49;;;;;;;2.83;1.30;;;17.00;64.20;;;;;;5021227;28;21019;-79
2022/05/29 00:54:18;;;;;;;2.50;1.20;;;16.90;64.50;;;;;;5019351;28;20950;-78
2022/05/29 00:56:47;;;;;;;1.30;1.10;;;16.90;68.30;;;;;;5020942;28;20467;-79
2022/05/29 00:59:19;;;;;;;2.10;1.37;;;16.90;68.60;;;;;;5023872;28;21013;-80
2022/05/29 01:01:48;;;;;;;1.87;1.10;;;16.90;69.00;;;;;;5018058;28;20461;-79
2022/05/29 01:04:17;;;;;;;3.93;1.50;;;16.80;67.90;;;;;;5010666;28;20585;-79
2022/05/29 01:06:45;;;;;;;1.47;1.20;;;16.80;72.30;;;;;;5018021;28;20554;-80
2022/05/29 01:09:14;;;;;;;1.77;1.20;;;16.80;72.10;;;;;;5018188;28;20489;-80
2022/05/29 01:12:01;;;;;;;2.40;1.20;;;16.80;75.70;;;;;;5020166;28;20487;-80
2022/05/29 01:14:37;;;;;;;2.67;1.37;;;16.80;79.50;;;;;;5016053;28;20451;-79
2022/05/29 01:17:22;;;;;;;1.10;1.00;;;16.80;80.80;;;;;;5024728;28;20456;-78
2022/05/29 01:20:19;;;;;;;1.57;1.20;;;16.80;76.00;;;;;;5016128;28;20485;-78
2022/05/29 01:23:28;;;;;;;1.37;1.10;;;16.70;76.70;;;;;;5010844;28;20503;-78
2022/05/29 01:26:29;;;;;;;2.37;0.97;;;16.60;68.50;;;;;;5017056;28;20470;-78
2022/05/29 01:29:01;;;;;;;1.47;1.00;;;16.60;64.40;;;;;;5009898;28;20480;-78
2022/05/29 01:31:47;;;;;;;1.23;1.00;;;16.50;59.90;;;;;;5015331;28;20644;-77
2022/05/29 01:34:28;;;;;;;1.83;1.00;;;16.50;61.00;;;;;;5019423;28;20472;-78
2022/05/29 01:37:08;;;;;;;1.30;1.20;;;16.50;60.20;;;;;;5018570;28;20461;-79
2022/05/29 01:39:39;;;;;;;1.07;1.07;;;16.50;61.90;;;;;;5015248;28;20480;-78
2022/05/29 01:42:14;;;;;;;1.40;0.90;;;16.50;63.10;;;;;;5023178;28;20988;-79
2022/05/29 01:44:50;;;;;;;1.13;1.03;;;16.40;58.90;;;;;;5025960;28;20837;-79
2022/05/29 01:47:24;;;;;;;2.13;1.77;;;16.50;57.10;;;;;;5020174;28;20456;-78
2022/05/29 01:49:59;;;;;;;2.33;1.00;;;16.50;54.80;;;;;;5024589;28;20476;-79
2022/05/29 01:52:32;;;;;;;1.30;1.20;;;16.50;56.30;;;;;;5020731;28;20488;-80
2022/05/29 01:55:06;;;;;;;2.20;1.10;;;16.50;54.80;;;;;;5015172;28;20447;-79
2022/05/29 01:57:37;;;;;;;1.00;1.00;;;16.50;53.50;;;;;;5018391;28;20465;-80
2022/05/29 02:00:11;;;;;;;1.57;1.00;;;16.50;54.00;;;;;;5014249;28;20486;-79
2022/05/29 02:02:44;;;;;;;1.03;0.90;;;16.50;54.10;;;;;;5029381;28;20454;-79
2022/05/29 02:05:16;;;;;;;1.20;1.10;;;16.50;53.30;;;;;;5014863;28;20481;-79
2022/05/29 02:07:50;;;;;;;1.27;1.17;;;16.50;53.30;;;;;;5018140;28;20569;-80
2022/05/29 02:10:25;;;;;;;1.00;0.90;;;16.40;55.40;;;;;;5014116;28;20478;-78
2022/05/29 02:12:59;;;;;;;1.13;1.03;;;16.40;52.70;;;;;;5019040;28;20496;-80
2022/05/29 02:15:37;;;;;;;1.20;0.90;;;16.40;52.80;;;;;;5016915;28;20457;-80
2022/05/29 02:18:08;;;;;;;1.63;0.83;;;16.40;51.00;;;;;;5017887;28;20457;-79
2022/05/29 02:20:42;;;;;;;1.20;1.07;;;16.40;51.00;;;;;;5018827;28;20473;-79
2022/05/29 02:23:29;;;;;;;2.50;1.07;;;16.40;50.00;;;;;;5022355;28;20485;-79
2022/05/29 02:25:58;;;;;;;2.23;1.00;;;16.30;46.40;;;;;;5017315;28;20469;-78
2022/05/29 02:28:33;;;;;;;3.33;1.03;;;16.30;47.70;;;;;;5015370;28;20463;-78
2022/05/29 02:31:13;;;;;;;1.40;1.10;;;16.30;47.70;;;;;;5020272;28;20475;-79
2022/05/29 02:33:49;;;;;;;1.27;0.90;;;16.40;66.80;;;;;;5019078;28;20482;-78
2022/05/29 02:36:29;;;;;;;0.97;0.97;;;16.30;47.90;;;;;;5017454;28;20882;-79
2022/05/29 02:39:24;;;;;;;0.97;0.90;;;16.30;46.50;;;;;;5019902;28;20473;-79
2022/05/29 02:42:06;;;;;;;1.53;1.10;;;16.30;45.60;;;;;;5017584;28;20496;-78
2022/05/29 02:44:43;;;;;;;1.57;1.10;;;16.30;58.40;;;;;;5011301;28;22675;-77
2022/05/29 02:47:27;;;;;;;1.20;1.10;;;16.30;43.10;;;;;;5011648;28;20464;-78
2022/05/29 02:50:09;;;;;;;1.10;1.00;;;16.30;45.20;;;;;;5014505;28;20923;-79
2022/05/29 02:52:37;;;;;;;1.73;1.20;;;16.30;42.70;;;;;;5018418;28;20885;-79
2022/05/29 02:55:07;;;;;;;1.20;1.10;;;16.40;44.60;;;;;;5015119;28;20474;-78
2022/05/29 02:57:35;;;;;;;1.00;0.90;;;16.30;43.00;;;;;;5022945;28;20859;-78
2022/05/29 03:00:11;;;;;;;4.23;1.20;;;16.30;44.90;;;;;;5016341;28;20489;-78
2022/05/29 03:02:53;;;;;;;1.00;0.80;;;16.30;44.10;;;;;;5012042;28;20516;-78
2022/05/29 03:05:27;;;;;;;1.13;0.90;;;16.30;42.80;;;;;;5031364;28;20452;-78
2022/05/29 03:08:09;;;;;;;2.67;1.00;;;16.30;43.50;;;;;;5019192;28;20467;-79
2022/05/29 03:10:43;;;;;;;1.57;1.30;;;16.30;40.90;;;;;;5015512;28;20476;-79
2022/05/29 03:13:16;;;;;;;5.27;1.20;;;16.20;41.60;;;;;;5015004;28;20488;-78
2022/05/29 03:15:53;;;;;;;1.40;0.80;;;16.20;39.70;;;;;;5014794;28;20603;-79
2022/05/29 03:18:35;;;;;;;2.00;1.80;;;16.20;40.70;;;;;;5024685;28;20495;-78
2022/05/29 03:21:11;;;;;;;1.00;1.00;;;16.20;40.30;;;;;;5015651;28;21007;-78
2022/05/29 03:23:47;;;;;;;2.00;1.20;;;16.20;40.60;;;;;;5015116;28;20461;-78
2022/05/29 03:26:20;;;;;;;1.27;1.00;;;16.20;39.40;;;;;;5020647;28;20456;-78
2022/05/29 03:28:54;;;;;;;2.00;1.03;;;16.10;38.90;;;;;;5017680;28;20472;-78
2022/05/29 03:31:26;;;;;;;1.03;0.93;;;16.10;40.40;;;;;;5023788;28;20474;-78
2022/05/29 03:33:57;;;;;;;1.93;0.90;;;16.10;41.90;;;;;;5020019;28;20548;-77
2022/05/29 03:36:28;;;;;;;1.27;0.80;;;16.00;40.70;;;;;;5013557;28;20915;-78
2022/05/29 03:38:57;;;;;;;1.23;0.97;;;16.10;42.40;;;;;;5025945;28;20468;-78
2022/05/29 03:41:32;;;;;;;0.93;0.80;;;16.00;41.20;;;;;;5025140;28;21141;-77
2022/05/29 03:44:01;;;;;;;1.63;1.20;;;16.00;40.50;;;;;;5013774;28;20544;-77
2022/05/29 03:46:29;;;;;;;5.13;1.10;;;16.00;40.00;;;;;;5018295;28;20514;-78
2022/05/29 03:48:59;;;;;;;1.20;1.10;;;16.00;40.20;;;;;;5015260;28;20484;-78
2022/05/29 03:51:27;;;;;;;1.53;1.20;;;16.00;40.40;;;;;;5023116;28;20546;-78
2022/05/29 03:53:55;;;;;;;1.30;1.20;;;15.90;39.30;;;;;;5013887;28;20476;-77
2022/05/29 03:56:23;;;;;;;2.13;1.10;;;15.90;41.20;;;;;;5010163;28;20466;-78
2022/05/29 03:58:54;;;;;;;2.33;1.00;;;15.90;41.00;;;;;;5022300;28;20496;-78
2022/05/29 04:01:22;;;;;;;2.30;1.10;;;15.90;37.50;;;;;;5013081;28;20495;-77
2022/05/29 04:03:53;;;;;;;1.10;1.00;;;15.80;36.70;;;;;;5018185;28;20979;-78
2022/05/29 04:06:26;;;;;;;1.23;0.93;;;15.70;37.70;;;;;;5020239;28;20489;-78
2022/05/29 04:14:30;;;;;;;4.10;0.80;;;15.70;35.70;;;;;;5015707;28;20495;-78
2022/05/29 04:16:58;;;;;;;0.87;0.80;;;15.70;37.00;;;;;;5014816;28;20882;-79
2022/05/29 04:19:27;;;;;;;0.90;0.90;;;15.70;39.10;;;;;;5016584;28;20508;-77
2022/05/29 04:21:56;;;;;;;1.30;0.80;;;15.80;38.10;;;;;;5021976;28;21045;-79
2022/05/29 04:24:25;;;;;;;1.47;1.00;;;15.70;39.70;;;;;;5015727;28;20463;-79
2022/05/29 04:26:53;;;;;;;2.30;1.00;;;15.70;39.20;;;;;;5013448;28;20462;-79
2022/05/29 04:29:21;;;;;;;1.30;1.20;;;15.70;37.50;;;;;;5019121;28;20487;-78
2022/05/29 04:34:36;;;;;;;0.90;0.90;;;15.70;36.70;;;;;;5017807;28;21026;-78
2022/05/29 04:37:06;;;;;;;2.00;1.00;;;15.80;38.70;;;;;;5021885;28;20818;-78
2022/05/29 04:39:36;;;;;;;1.50;0.93;;;15.80;39.70;;;;;;5013991;28;20495;-78
2022/05/29 04:42:06;;;;;;;1.20;1.10;;;15.70;39.10;;;;;;5018612;28;20878;-79
2022/05/29 04:44:34;;;;;;;1.30;1.10;;;15.80;37.10;;;;;;5013892;28;20458;-79
2022/05/29 04:47:03;;;;;;;1.63;0.90;;;15.70;38.30;;;;;;5017810;28;20467;-79
2022/05/29 04:49:32;;;;;;;2.47;1.00;;;15.60;37.50;;;;;;5016317;28;20483;-79
2022/05/29 04:52:00;;;;;;;2.07;1.00;;;15.60;37.80;;;;;;5022583;28;20963;-79
2022/05/29 04:54:30;;;;;;;3.20;1.37;;;15.60;39.00;;;;;;5018254;28;20484;-78
2022/05/29 04:56:58;;;;;;;0.90;0.90;;;15.70;38.30;;;;;;5011353;28;20514;-78
2022/05/29 04:59:27;;;;;;;2.60;1.20;;;15.70;38.00;;;;;;5013136;28;20492;-79
2022/05/29 05:01:58;;;;;;;1.63;1.00;;;15.60;39.00;;;;;;5011448;28;20458;-78
2022/05/29 05:04:26;;;;;;;1.37;1.00;;;15.70;37.90;;;;;;5014678;28;20505;-79
2022/05/29 05:06:55;;;;;;;1.20;1.10;;;15.60;40.00;;;;;;5022591;28;20461;-79
2022/05/29 05:09:23;;;;;;;2.20;1.00;;;15.70;40.00;;;;;;5018874;28;20475;-79
2022/05/29 05:11:54;;;;;;;2.27;1.07;;;15.80;40.50;;;;;;5025349;28;20454;-80
2022/05/29 05:14:24;;;;;;;3.17;1.00;;;15.80;39.40;;;;;;5024347;28;20487;-78
2022/05/29 05:16:53;;;;;;;4.20;1.10;;;15.80;41.30;;;;;;5019738;28;20469;-78
2022/05/29 05:19:22;;;;;;;2.20;1.10;;;15.80;41.00;;;;;;5015236;28;21318;-79
2022/05/29 05:21:50;;;;;;;2.23;0.90;;;15.70;41.30;;;;;;5019002;28;20455;-78
2022/05/29 05:24:19;;;;;;;1.23;1.00;;;15.70;41.60;;;;;;5023594;28;20455;-79
2022/05/29 05:26:48;;;;;;;2.47;0.90;;;15.80;43.10;;;;;;5024010;28;20470;-79
2022/05/29 05:29:17;;;;;;;1.20;1.10;;;15.70;46.30;;;;;;5021261;28;20485;-80
2022/05/29 05:31:45;;;;;;;1.13;1.00;;;15.70;48.30;;;;;;5017048;28;20468;-80
2022/05/29 05:34:14;;;;;;;0.97;0.90;;;15.80;49.80;;;;;;5015028;28;20488;-79
2022/05/29 05:36:42;;;;;;;2.30;1.10;;;15.80;49.20;;;;;;5018158;28;20466;-79
2022/05/29 05:39:10;;;;;;;2.10;1.10;;;15.80;51.80;;;;;;5017010;28;20479;-80
2022/05/29 05:41:38;;;;;;;2.63;1.20;;;15.70;50.70;;;;;;5020693;28;20519;-79
2022/05/29 05:44:07;;;;;;;1.50;1.17;;;15.80;52.50;;;;;;5013480;28;20463;-79
2022/05/29 05:46:37;;;;;;;1.53;0.90;;;15.90;54.10;;;;;;5010003;28;23170;-79
2022/05/29 05:49:06;;;;;;;1.83;0.97;;;15.90;51.90;;;;;;5017960;28;20481;-79
2022/05/29 05:51:34;;;;;;;1.43;0.90;;;15.90;53.60;;;;;;5021283;28;20491;-76
2022/05/29 05:54:02;;;;;;;1.03;0.93;;;16.00;54.50;;;;;;5017092;28;20481;-76
2022/05/29 05:56:30;;;;;;;6.20;2.27;;;16.00;55.10;;;;;;5026565;28;20467;-76
2022/05/29 05:58:58;;;;;;;1.70;0.90;;;16.10;56.30;;;;;;5018058;28;20482;-78
2022/05/29 06:01:27;;;;;;;3.67;1.30;;;16.10;54.50;;;;;;5013676;28;20445;-79
2022/05/29 06:03:59;;;;;;;3.10;1.10;;;16.10;54.00;;;;;;5017836;28;20579;-78
2022/05/29 06:06:28;;;;;;;1.80;1.00;;;16.20;54.40;;;;;;5020426;28;20457;-77
2022/05/29 06:08:57;;;;;;;1.10;1.00;;;16.20;54.50;;;;;;5020817;28;20515;-77
2022/05/29 06:11:26;;;;;;;1.00;0.87;;;16.20;55.60;;;;;;5020306;28;20454;-78
2022/05/29 06:13:54;;;;;;;2.20;1.23;;;16.20;54.50;;;;;;5020586;28;20513;-78
2022/05/29 06:16:23;;;;;;;1.63;1.30;;;16.20;53.90;;;;;;5021019;28;20460;-78
2022/05/29 06:18:51;;;;;;;3.90;1.03;;;16.10;53.70;;;;;;5018323;28;20457;-77
2022/05/29 06:21:20;;;;;;;1.90;1.10;;;16.10;54.10;;;;;;5019641;28;20463;-79
2022/05/29 06:23:50;;;;;;;0.90;0.90;;;16.20;54.20;;;;;;5013925;28;20489;-78
2022/05/29 06:26:18;;;;;;;1.43;1.20;;;16.20;54.90;;;;;;5011162;28;20457;-78
2022/05/29 06:28:46;;;;;;;1.67;1.00;;;16.20;54.90;;;;;;5021653;28;20482;-78
2022/05/29 06:31:15;;;;;;;1.30;1.13;;;16.20;52.80;;;;;;5018571;28;20464;-78
2022/05/29 06:33:44;;;;;;;2.60;0.90;;;16.30;52.60;;;;;;5018169;28;20514;-78
2022/05/29 06:36:15;;;;;;;1.23;1.13;;;16.30;50.80;;;;;;5014564;28;20544;-78
2022/05/29 06:38:46;;;;;;;1.80;1.17;;;16.30;50.40;;;;;;5020966;28;20906;-78
2022/05/29 06:41:16;;;;;;;1.20;1.10;;;16.30;50.40;;;;;;5015068;28;20452;-78
2022/05/29 06:43:45;;;;;;;0.93;0.80;;;16.30;50.60;;;;;;5020797;28;20452;-77
2022/05/29 06:46:14;;;;;;;2.10;0.90;;;16.40;51.10;;;;;;5016568;28;20575;-78
2022/05/29 06:48:42;;;;;;;1.50;1.00;;;16.40;54.20;;;;;;5015523;28;20464;-77
2022/05/29 06:51:13;;;;;;;1.60;1.37;;;16.30;53.20;;;;;;5014383;28;20518;-78
2022/05/29 06:53:44;;;;;;;1.27;1.17;;;16.30;53.60;;;;;;5022556;28;20468;-78
2022/05/29 06:56:13;;;;;;;1.53;1.20;;;16.30;54.70;;;;;;5023055;28;20487;-78
2022/05/29 06:58:42;;;;;;;1.80;1.10;;;16.30;52.10;;;;;;5012876;28;20460;-77
2022/05/29 07:07:00;;;;;;;2.07;1.10;;;16.30;51.60;;;;;;5017498;28;20471;-78
2022/05/29 07:09:32;;;;;;;3.73;1.60;;;16.40;52.70;;;;;;5014785;28;20502;-78
2022/05/29 07:12:07;;;;;;;1.63;1.10;;;16.50;54.00;;;;;;5022016;28;20832;-79
2022/05/29 07:14:38;;;;;;;4.00;2.30;;;16.50;53.70;;;;;;5014147;28;20483;-78
2022/05/29 07:17:07;;;;;;;2.70;1.30;;;16.60;53.90;;;;;;5016543;28;20457;-77
2022/05/29 07:19:35;;;;;;;1.03;0.90;;;16.60;54.20;;;;;;5018747;28;20478;-76
2022/05/29 07:22:04;;;;;;;1.67;1.20;;;16.70;55.60;;;;;;5015132;28;20459;-79
2022/05/29 07:24:36;;;;;;;3.87;1.30;;;16.80;55.30;;;;;;5014656;28;20985;-78
2022/05/29 07:27:05;;;;;;;1.43;1.00;;;16.90;56.40;;;;;;5013071;28;20460;-78
2022/05/29 07:29:33;;;;;;;2.63;1.07;;;16.90;57.90;;;;;;5021083;28;20486;-78
2022/05/29 07:32:01;;;;;;;3.73;1.00;;;17.00;57.90;;;;;;5011998;28;20796;-78
2022/05/29 07:34:30;;;;;;;1.10;0.90;;;17.10;58.00;;;;;;5016714;28;20476;-80
2022/05/29 07:37:03;;;;;;;1.27;0.90;;;17.20;60.80;;;;;;5010539;28;20453;-79
2022/05/29 07:39:38;;;;;;;1.63;1.00;;;17.40;61.50;;;;;;5023589;28;20483;-81
2022/05/29 07:44:54;;;;;;;1.13;1.03;;;17.50;67.70;;;;;;5014495;28;20537;-78
2022/05/29 07:47:23;;;;;;;1.55;1.20;;;17.60;82.20;;;;;;5009938;28;20454;-78
2022/05/29 07:49:51;;;;;;;2.10;0.90;;;17.60;61.20;;;;;;5014126;28;20220;-78
2022/05/29 07:52:20;;;;;;;1.73;0.90;;;17.60;62.20;;;;;;5013719;28;20461;-77
2022/05/29 07:54:52;;;;;;;2.07;1.07;;;17.70;60.10;;;;;;5010174;28;20455;-77
2022/05/29 07:57:20;;;;;;;2.30;1.10;;;17.60;59.30;;;;;;5010489;28;20456;-77
2022/05/29 07:59:49;;;;;;;1.97;1.10;;;17.50;59.60;;;;;;5020549;28;20481;-79
2022/05/29 08:02:17;;;;;;;1.03;0.93;;;17.60;59.00;;;;;;5010334;28;20455;-77
2022/05/29 08:04:45;;;;;;;2.20;1.20;;;17.40;55.80;;;;;;5018308;28;20498;-76
2022/05/29 08:07:17;;;;;;;1.70;1.03;;;17.30;51.60;;;;;;5020525;28;20454;-77
2022/05/29 08:09:45;;;;;;;1.27;1.10;;;17.20;49.90;;;;;;5018839;28;20551;-78
2022/05/29 08:12:15;;;;;;;5.53;1.07;;;17.20;50.40;;;;;;5009540;28;20442;-78
2022/05/29 08:14:43;;;;;;;3.03;1.00;;;17.10;55.20;;;;;;5012888;28;20455;-77
2022/05/29 08:17:11;;;;;;;1.80;1.40;;;17.00;58.20;;;;;;5013162;28;20464;-78
2022/05/29 08:19:39;;;;;;;2.70;1.00;;;17.00;58.90;;;;;;5012925;28;21047;-78
2022/05/29 08:22:08;;;;;;;1.50;1.03;;;17.00;58.60;;;;;;5013456;28;20536;-77
2022/05/29 08:30:38;;;;;;;2.03;1.10;;;16.80;57.20;;;;;;5014549;28;21101;-78
2022/05/29 08:33:09;;;;;;;2.03;1.30;;;16.60;56.60;;;;;;5013855;28;20487;-78
2022/05/29 08:35:38;;;;;;;2.70;0.90;;;16.60;54.60;;;;;;5015332;28;20478;-79
2022/05/29 08:38:07;;;;;;;1.30;0.80;;;16.50;53.60;;;;;;5016150;28;20554;-77
2022/05/29 08:40:43;;;;;;;1.20;0.80;;;16.50;55.00;;;;;;5012292;28;20560;-78
2022/05/29 08:43:18;;;;;;;2.73;0.87;;;16.50;54.10;;;;;;5017702;28;20852;-78
2022/05/29 08:45:50;;;;;;;1.83;0.90;;;16.50;52.50;;;;;;5015620;28;20470;-77
2022/05/29 08:48:21;;;;;;;1.70;1.00;;;16.50;53.90;;;;;;5020979;28;20461;-78
2022/05/29 08:51:01;;;;;;;1.63;1.03;;;16.50;51.60;;;;;;5013654;28;20479;-77
2022/05/29 08:53:38;;;;;;;2.20;0.80;;;16.40;50.60;;;;;;5018962;28;20541;-78
2022/05/29 08:56:14;;;;;;;2.60;1.00;;;16.40;50.60;;;;;;5010562;28;20473;-78
2022/05/29 08:59:03;;;;;;;0.80;0.80;;;16.30;50.50;;;;;;5015825;28;20464;-77
2022/05/29 09:01:48;;;;;;;1.33;0.97;;;16.30;49.70;;;;;;5010266;28;20510;-78
2022/05/29 09:04:26;;;;;;;2.80;1.10;;;16.30;52.90;;;;;;5015502;28;20446;-78
2022/05/29 09:06:56;;;;;;;2.10;0.80;;;16.40;50.60;;;;;;5012426;28;20451;-79
2022/05/29 09:09:37;;;;;;;1.40;0.90;;;16.40;50.60;;;;;;5018354;28;21079;-78
2022/05/29 09:12:07;;;;;;;2.33;1.10;;;16.50;51.20;;;;;;5017531;28;20463;-78
2022/05/29 09:14:44;;;;;;;1.90;1.00;;;16.50;53.50;;;;;;5016435;28;20867;-78
2022/05/29 09:17:15;;;;;;;3.47;0.90;;;16.50;52.90;;;;;;5019287;28;20503;-79
2022/05/29 09:19:49;;;;;;;1.07;0.67;;;16.50;52.00;;;;;;5010033;28;20486;-76
2022/05/29 09:22:26;;;;;;;1.67;0.93;;;16.50;51.80;;;;;;5011083;28;20456;-79
2022/05/29 09:25:01;;;;;;;1.33;1.20;;;16.60;52.40;;;;;;5017849;28;20448;-78
2022/05/29 09:27:30;;;;;;;0.87;0.87;;;16.70;52.20;;;;;;5020467;28;20821;-78
2022/05/29 09:29:59;;;;;;;1.93;1.30;;;16.70;53.30;;;;;;5009654;28;20485;-78
2022/05/29 09:32:30;;;;;;;0.97;0.70;;;16.60;53.60;;;;;;5013927;28;20570;-79
2022/05/29 09:35:04;;;;;;;1.60;0.80;;;16.50;52.00;;;;;;5019575;28;20519;-79
2022/05/29 09:37:45;;;;;;;1.00;0.73;;;16.50;49.10;;;;;;5015032;28;20487;-79
2022/05/29 09:40:20;;;;;;;2.40;0.80;;;16.50;44.80;;;;;;5006207;28;20464;-78
2022/05/29 09:42:52;;;;;;;2.50;0.80;;;16.60;47.30;;;;;;5013066;28;20892;-78
2022/05/29 09:45:32;;;;;;;1.77;0.90;;;16.70;46.40;;;;;;5015663;28;20460;-78
2022/05/29 09:50:55;;;;;;;1.17;0.73;;;16.90;47.00;;;;;;5013258;28;20477;-78
2022/05/29 09:53:26;;;;;;;1.63;0.90;;;16.90;45.00;;;;;;5020853;28;20537;-78
2022/05/29 09:55:58;;;;;;;0.70;0.70;;;16.80;44.10;;;;;;5020678;28;20460;-80
2022/05/29 09:58:30;;;;;;;1.60;0.80;;;16.90;48.20;;;;;;5012717;28;20463;-80
2022/05/29 10:01:04;;;;;;;0.80;0.80;;;16.90;48.70;;;;;;5014709;28;20479;-80
2022/05/29 10:03:54;;;;;;;1.83;1.47;;;17.00;51.00;;;;;;5017628;28;20460;-80
2022/05/29 10:06:31;;;;;;;1.40;1.00;;;17.00;50.70;;;;;;5013988;28;20565;-79
2022/05/29 10:09:14;;;;;;;1.10;1.00;;;17.00;52.00;;;;;;5015957;28;20514;-79
2022/05/29 10:11:45;;;;;;;1.60;0.80;;;17.00;52.30;;;;;;5019253;28;20471;-79
2022/05/29 10:14:35;;;;;;;0.90;0.80;;;17.00;53.10;;;;;;5016842;28;20452;-80
2022/05/29 10:17:12;;;;;;;1.47;1.20;;;17.00;54.60;;;;;;5018406;28;20992;-80
2022/05/29 10:19:43;;;;;;;1.17;1.07;;;17.00;56.30;;;;;;5016126;28;21079;-79
2022/05/29 10:22:20;;;;;;;1.90;1.30;;;17.00;57.10;;;;;;5020011;28;20456;-77
2022/05/29 10:24:49;;;;;;;1.10;1.00;;;17.10;57.60;;;;;;5012722;28;20484;-78
2022/05/29 10:27:30;;;;;;;0.87;0.87;;;17.00;57.40;;;;;;5016497;28;20872;-77
2022/05/29 10:30:00;;;;;;;4.27;1.17;;;17.10;56.60;;;;;;5021796;28;20560;-75
2022/05/29 10:32:34;;;;;;;2.50;0.90;;;17.00;54.70;;;;;;5014396;28;21342;-76
2022/05/29 10:35:17;;;;;;;1.03;0.93;;;16.90;54.10;;;;;;5016899;28;20471;-76
2022/05/29 10:37:46;;;;;;;1.53;0.90;;;17.00;57.20;;;;;;5012407;28;20488;-76
2022/05/29 10:40:20;;;;;;;0.73;0.73;;;17.00;55.80;;;;;;5015985;28;20472;-76
2022/05/29 10:42:50;;;;;;;0.70;0.70;;;17.00;57.20;;;;;;5016696;28;20455;-76
2022/05/29 10:45:24;;;;;;;1.20;0.83;;;17.10;59.90;;;;;;5024167;28;20838;-76
2022/05/29 10:48:19;;;;;;;1.00;0.90;;;17.00;58.20;;;;;;5016296;28;20452;-76
2022/05/29 10:51:01;;;;;;;0.80;0.80;;;16.90;56.10;;;;;;5018233;28;20481;-76
2022/05/29 10:53:40;;;;;;;0.53;0.53;;;16.90;56.40;;;;;;5017318;28;20440;-76
2022/05/29 10:56:17;;;;;;;0.60;0.60;;;17.00;64.00;;;;;;5020519;28;20857;-75
2022/05/29 10:59:15;;;;;;;0.93;0.80;;;17.10;61.50;;;;;;5014234;28;22204;-75
2022/05/29 11:04:59;;;;;;;0.77;0.60;;;17.10;63.60;;;;;;5013244;28;20453;-75
2022/05/29 11:07:38;;;;;;;0.60;0.60;;;17.10;61.10;;;;;;5024106;28;21462;-75
2022/05/29 11:10:16;;;;;;;0.80;0.60;;;17.10;63.20;;;;;;5025239;28;21265;-75
2022/05/29 11:13:05;;;;;;;0.93;0.60;;;16.90;55.50;;;;;;5015816;28;20462;-76
2022/05/29 11:15:43;;;;;;;0.50;0.50;;;17.00;53.80;;;;;;5018463;28;20452;-76
2022/05/29 11:18:48;;;;;;;0.70;0.60;;;17.00;52.00;;;;;;5015718;28;20489;-77
2022/05/29 11:21:26;;;;;;;0.90;0.70;;;17.00;50.90;;;;;;5010047;28;20469;-77
2022/05/29 11:24:20;;;;;;;0.57;0.50;;;16.80;52.00;;;;;;5016186;28;20462;-77
2022/05/29 11:27:00;;;;;;;0.80;0.70;;;16.80;51.30;;;;;;5022504;28;20454;-76
2022/05/29 11:29:59;;;;;;;1.07;0.70;;;16.90;52.00;;;;;;5014276;28;20501;-76
2022/05/29 11:33:00;;;;;;;0.97;0.50;;;17.10;57.20;;;;;;5016610;28;20464;-77
2022/05/29 11:35:45;;;;;;;0.77;0.77;;;17.20;62.60;;;;;;5012101;28;20824;-78
2022/05/29 11:38:34;;;;;;;0.70;0.70;;;17.30;60.00;;;;;;5020012;28;21386;-76
2022/05/29 11:41:07;;;;;;;1.27;0.70;;;17.40;58.80;;;;;;5013238;28;20473;-77
2022/05/29 11:43:45;;;;;;;0.70;0.63;;;17.50;59.10;;;;;;5016625;28;21114;-78
2022/05/29 11:52:00;;;;;;;0.70;0.70;;;17.60;53.30;;;;;;5015256;28;20207;-78
2022/05/29 11:54:34;;;;;;;1.90;0.60;;;17.70;55.70;;;;;;5013924;28;20450;-77
2022/05/29 11:57:09;;;;;;;1.00;0.70;;;17.70;56.50;;;;;;5017803;28;20215;-78
2022/05/29 11:59:47;;;;;;;0.67;0.63;;;17.80;53.20;;;;;;5014156;28;20488;-79
2022/05/29 12:02:29;;;;;;;1.20;0.50;;;17.80;51.90;;;;;;5014757;28;20465;-78
2022/05/29 12:05:17;;;;;;;1.53;0.70;;;17.80;52.30;;;;;;5025015;28;20512;-78
2022/05/29 12:07:51;;;;;;;0.87;0.80;;;17.80;54.40;;;;;;5024993;28;20474;-77
2022/05/29 12:10:23;;;;;;;0.50;0.50;;;17.90;59.00;;;;;;5017341;28;20484;-79
2022/05/29 12:12:59;;;;;;;0.70;0.70;;;17.90;57.00;;;;;;5014546;28;20463;-78
2022/05/29 12:15:30;;;;;;;1.20;0.63;;;18.00;60.90;;;;;;5014525;28;20465;-78
2022/05/29 12:18:05;;;;;;;0.73;0.60;;;17.80;51.10;;;;;;5020202;28;20581;-79
2022/05/29 12:20:40;;;;;;;0.60;0.60;;;17.80;56.60;;;;;;5017475;28;20535;-79
2022/05/29 12:23:19;;;;;;;0.57;0.57;;;17.90;56.80;;;;;;5018532;28;20460;-79
2022/05/29 12:25:57;;;;;;;0.93;0.50;;;18.00;55.90;;;;;;5018051;28;20458;-79
2022/05/29 12:28:34;;;;;;;0.90;0.60;;;18.00;53.50;;;;;;5016549;28;20466;-79
2022/05/29 12:31:03;;;;;;;0.50;0.50;;;18.10;54.60;;;;;;5018211;28;20483;-78
2022/05/29 12:33:32;;;;;;;0.50;0.50;;;18.10;54.70;;;;;;5037505;28;20461;-80
2022/05/29 12:36:19;;;;;;;0.60;0.60;;;18.10;55.60;;;;;;5017607;28;20455;-78
2022/05/29 12:39:04;;;;;;;1.70;0.70;;;18.10;53.70;;;;;;5015994;28;20570;-78
2022/05/29 12:42:00;;;;;;;0.90;0.70;;;18.10;52.50;;;;;;5016825;28;20541;-79
2022/05/29 12:45:04;;;;;;;0.70;0.70;;;18.10;52.40;;;;;;5020070;28;20452;-79
2022/05/29 12:48:00;;;;;;;0.73;0.70;;;18.10;50.00;;;;;;5014938;28;20458;-79
2022/05/29 12:50:49;;;;;;;0.57;0.57;;;18.10;47.20;;;;;;5015075;28;20471;-79
2022/05/29 12:53:42;;;;;;;1.03;0.60;;;18.00;47.80;;;;;;5012927;28;20452;-78
2022/05/29 12:56:37;;;;;;;1.00;0.80;;;18.00;49.00;;;;;;5021078;28;21128;-79
2022/05/29 12:59:32;;;;;;;1.00;0.60;;;18.00;47.50;;;;;;5018031;28;20494;-78
2022/05/29 13:02:13;;;;;;;0.60;0.50;;;18.00;49.10;;;;;;5022039;28;20494;-78
2022/05/29 13:05:14;;;;;;;1.70;0.97;;;18.10;57.90;;;;;;5020947;28;20463;-77
2022/05/29 13:08:10;;;;;;;1.17;0.70;;;18.20;62.00;;;;;;5015995;28;20533;-79
2022/05/29 13:10:40;;;;;;;0.60;0.50;;;18.20;44.40;;;;;;5020929;28;20500;-79
2022/05/29 13:13:13;;;;;;;0.60;0.60;;;18.30;48.00;;;;;;5019167;28;20502;-78
2022/05/29 13:15:44;;;;;;;0.60;0.60;;;18.30;45.80;;;;;;5015982;28;20452;-79
2022/05/29 13:18:21;;;;;;;0.83;0.60;;;18.40;46.10;;;;;;5019556;28;20559;-78
2022/05/29 13:21:12;;;;;;;0.77;0.60;;;18.40;43.40;;;;;;5021244;28;20465;-79
2022/05/29 13:23:45;;;;;;;2.30;0.63;;;18.30;42.30;;;;;;5015191;28;20451;-75
2022/05/29 13:26:26;;;;;;;1.07;0.60;;;18.40;43.30;;;;;;5011822;28;20474;-81
2022/05/29 13:29:00;;;;;;;0.60;0.60;;;18.50;43.90;;;;;;5025302;28;20471;-79
2022/05/29 13:31:33;;;;;;;0.83;0.73;;;18.50;41.80;;;;;;5014882;28;20971;-79
2022/05/29 13:34:27;;;;;;;0.60;0.60;;;18.60;43.30;;;;;;5015387;28;20484;-78
2022/05/29 13:37:02;;;;;;;1.20;0.70;;;18.60;38.00;;;;;;5023486;28;20474;-79
2022/05/29 13:39:51;;;;;;;1.27;0.50;;;18.60;40.30;;;;;;5026598;28;21321;-80
2022/05/29 13:42:27;;;;;;;0.70;0.70;;;18.60;36.10;;;;;;5019996;28;20455;-79
2022/05/29 13:44:55;;;;;;;0.97;0.60;;;18.70;37.90;;;;;;5019080;28;20461;-78
2022/05/29 13:47:47;;;;;;;0.80;0.80;;;18.70;42.00;;;;;;5022061;28;20459;-79
2022/05/29 13:50:29;;;;;;;0.60;0.60;;;18.90;41.90;;;;;;5026828;28;20574;-78
2022/05/29 13:53:00;;;;;;;0.80;0.80;;;19.00;44.20;;;;;;5028958;28;20770;-79
2022/05/29 13:55:32;;;;;;;1.67;0.70;;;19.00;51.70;;;;;;5026345;28;20448;-78
2022/05/29 14:04:02;;;;;;;1.60;0.90;;;18.80;50.00;;;;;;5023251;28;20524;-79
2022/05/29 14:07:32;;;;;;;1.33;0.85;;;18.70;47.10;;;;;;5017944;28;20458;-77